Date,TemperatureHighF,TemperatureAvgF,TemperatureLowF,DewpointHighF,DewpointAvgF,DewpointLowF,HumidityHigh,HumidityAvg,HumidityLow,PressureMaxIn,PressureMinIn,WindSpeedMaxMPH,WindSpeedAvgMPH,GustSpeedMaxMPH,PrecipitationSumIn
2012-12-1,67,60,54,59,54,49,87,81,72,30.03,29.88,22,4,22,0.18
2012-12-2,62,56,45,57,52,42,90,84,78,30.10,29.74,31,6,31,0.99
2012-12-3,59,49,38,48,43,35,90,81,64,30.19,30.08,10,2,10,0.01
2012-12-4,64,55,47,54,49,42,89,80,65,30.23,30.13,4,1,4,0.00
2012-12-5,64,59,55,61,56,51,94,88,81,30.15,30.07,12,3,12,0.70
2012-12-6,58,55,46,54,51,42,93,87,80,30.11,30.05,8,2,8,0.01
2012-12-7,60,48,40,50,41,35,92,80,56,30.13,30.04,5,1,5,0.01
2012-12-8,58,45,34,47,37,30,94,74,46,30.10,30.01,9,2,9,0.00
2012-12-9,60,51,44,43,39,34,75,64,48,30.19,30.08,10,4,10,0.00
2012-12-10,63,51,44,46,41,37,81,69,45,30.22,30.08,13,4,13,0.00
2012-12-11,63,48,37,49,42,33,86,79,57,30.09,29.83,15,3,15,0.00
2012-12-12,55,48,37,46,41,32,87,78,64,29.89,29.80,11,3,11,0.03
2012-12-13,51,41,33,44,34,28,88,78,61,29.91,29.83,10,2,10,0.02
2012-12-14,52,40,31,44,34,26,87,80,68,30.01,29.80,5,1,5,0.00
2012-12-15,50,40,30,43,36,27,90,85,73,30.08,29.97,10,2,10,0.19
2012-12-16,56,50,43,49,45,39,89,83,73,30.09,30.01,11,2,11,0.00
2012-12-17,58,53,45,54,49,41,88,85,81,30.05,29.94,17,5,17,0.12
2012-12-18,49,42,32,41,34,25,88,73,51,30.16,29.96,13,3,13,0.00
2012-12-19,49,36,27,34,27,22,86,70,44,30.29,30.15,8,2,8,0.00
2012-12-20,56,40,27,35,28,22,84,63,40,30.20,29.99,13,3,13,0.01
2012-12-21,62,50,37,49,42,28,87,74,61,29.99,29.85,22,4,22,0.05
2012-12-22,56,51,49,48,46,42,88,81,73,30.08,29.81,19,6,19,0.83
2012-12-23,57,52,47,50,47,43,90,83,75,30.08,29.84,26,7,26,0.90
2012-12-24,53,45,39,45,40,34,92,82,60,30.18,29.99,11,3,11,0.00
2012-12-25,50,44,37,46,40,33,90,86,81,30.14,29.75,21,3,21,0.31
2012-12-26,53,47,41,48,43,38,91,86,75,30.08,29.85,14,5,14,0.06
2012-12-27,52,43,36,42,37,31,89,79,58,30.16,30.06,10,2,10,0.01
2012-12-28,48,40,31,42,36,28,91,84,74,30.17,30.02,10,2,10,0.02
2012-12-29,50,42,35,41,37,31,93,83,64,30.07,29.99,16,4,16,0.05
2012-12-30,52,40,32,39,32,28,90,74,49,30.16,30.02,12,2,12,0.01
2012-12-31,50,40,31,34,29,25,83,67,45,30.27,30.15,10,2,10,0.00